sensor_id;sensor_type;location;lat;lon;timestamp;temperature;humidity
11423;DHT22;5768;51.476;7.210;2022-12-24T00:08:45;11.40;92.10
11423;DHT22;5768;51.476;7.210;2022-12-24T00:13:48;11.50;89.70
11423;DHT22;5768;51.476;7.210;2022-12-24T00:18:50;11.40;87.30
11423;DHT22;5768;51.476;7.210;2022-12-24T00:23:54;11.40;87.00
11423;DHT22;5768;51.476;7.210;2022-12-24T00:39:06;11.30;84.20
11423;DHT22;5768;51.476;7.210;2022-12-24T00:49:12;11.50;81.80
11423;DHT22;5768;51.476;7.210;2022-12-24T00:59:40;11.50;82.40
11423;DHT22;5768;51.476;7.210;2022-12-24T01:15:10;11.40;83.40
11423;DHT22;5768;51.476;7.210;2022-12-24T01:20:15;11.30;81.80
11423;DHT22;5768;51.476;7.210;2022-12-24T01:25:20;11.30;81.30
11423;DHT22;5768;51.476;7.210;2022-12-24T01:30:22;11.40;39.10
11423;DHT22;5768;51.476;7.210;2022-12-24T01:35:24;11.40;25.80
11423;DHT22;5768;51.476;7.210;2022-12-24T01:40:28;11.30;26.30
11423;DHT22;5768;51.476;7.210;2022-12-24T01:45:49;11.20;26.50
11423;DHT22;5768;51.476;7.210;2022-12-24T01:50:57;11.10;27.30
11423;DHT22;5768;51.476;7.210;2022-12-24T01:56:05;11.10;27.40
11423;DHT22;5768;51.476;7.210;2022-12-24T02:01:09;11.10;27.60
11423;DHT22;5768;51.476;7.210;2022-12-24T02:06:12;11.00;27.90
11423;DHT22;5768;51.476;7.210;2022-12-24T02:11:20;11.00;28.00
11423;DHT22;5768;51.476;7.210;2022-12-24T02:16:31;11.00;27.80
11423;DHT22;5768;51.476;7.210;2022-12-24T02:21:48;10.90;27.70
11423;DHT22;5768;51.476;7.210;2022-12-24T02:27:10;10.90;27.70
11423;DHT22;5768;51.476;7.210;2022-12-24T02:32:21;10.70;28.00
11423;DHT22;5768;51.476;7.210;2022-12-24T02:37:30;10.80;28.20
11423;DHT22;5768;51.476;7.210;2022-12-24T02:42:38;10.80;28.40
11423;DHT22;5768;51.476;7.210;2022-12-24T02:47:44;10.80;28.10
11423;DHT22;5768;51.476;7.210;2022-12-24T02:52:48;10.70;28.70
11423;DHT22;5768;51.476;7.210;2022-12-24T02:58:03;10.70;29.00
11423;DHT22;5768;51.476;7.210;2022-12-24T03:03:32;10.70;28.80
11423;DHT22;5768;51.476;7.210;2022-12-24T03:08:45;10.70;29.30
11423;DHT22;5768;51.476;7.210;2022-12-24T03:13:54;10.80;29.50
11423;DHT22;5768;51.476;7.210;2022-12-24T03:19:02;10.70;29.10
11423;DHT22;5768;51.476;7.210;2022-12-24T03:24:05;10.70;29.20
11423;DHT22;5768;51.476;7.210;2022-12-24T03:29:08;10.60;29.80
11423;DHT22;5768;51.476;7.210;2022-12-24T03:34:14;10.70;29.80
11423;DHT22;5768;51.476;7.210;2022-12-24T03:39:17;10.70;31.80
11423;DHT22;5768;51.476;7.210;2022-12-24T03:44:19;10.70;33.10
11423;DHT22;5768;51.476;7.210;2022-12-24T03:49:22;10.80;32.80
11423;DHT22;5768;51.476;7.210;2022-12-24T03:54:24;10.80;31.60
11423;DHT22;5768;51.476;7.210;2022-12-24T03:59:26;10.80;29.70
11423;DHT22;5768;51.476;7.210;2022-12-24T04:04:30;11.00;29.50
11423;DHT22;5768;51.476;7.210;2022-12-24T04:09:33;11.00;29.60
11423;DHT22;5768;51.476;7.210;2022-12-24T04:14:35;10.90;29.80
11423;DHT22;5768;51.476;7.210;2022-12-24T04:19:41;10.80;32.70
11423;DHT22;5768;51.476;7.210;2022-12-24T04:24:45;10.80;39.30
11423;DHT22;5768;51.476;7.210;2022-12-24T04:29:47;10.90;37.90
11423;DHT22;5768;51.476;7.210;2022-12-24T04:34:51;10.80;82.10
11423;DHT22;5768;51.476;7.210;2022-12-24T04:39:53;10.80;82.80
11423;DHT22;5768;51.476;7.210;2022-12-24T04:44:55;10.80;83.40
11423;DHT22;5768;51.476;7.210;2022-12-24T04:49:58;10.90;82.60
11423;DHT22;5768;51.476;7.210;2022-12-24T04:55:01;10.90;83.60
11423;DHT22;5768;51.476;7.210;2022-12-24T05:00:05;11.00;84.20
11423;DHT22;5768;51.476;7.210;2022-12-24T05:05:10;10.90;84.00
11423;DHT22;5768;51.476;7.210;2022-12-24T05:10:12;10.90;84.40
11423;DHT22;5768;51.476;7.210;2022-12-24T05:15:14;11.00;84.40
11423;DHT22;5768;51.476;7.210;2022-12-24T05:20:18;11.00;84.60
11423;DHT22;5768;51.476;7.210;2022-12-24T05:25:20;11.00;85.00
11423;DHT22;5768;51.476;7.210;2022-12-24T05:30:54;11.00;85.40
11423;DHT22;5768;51.476;7.210;2022-12-24T05:35:57;11.20;84.90
11423;DHT22;5768;51.476;7.210;2022-12-24T05:41:00;11.10;83.20
11423;DHT22;5768;51.476;7.210;2022-12-24T05:46:04;11.00;84.60
11423;DHT22;5768;51.476;7.210;2022-12-24T05:51:11;11.00;85.20
11423;DHT22;5768;51.476;7.210;2022-12-24T05:56:17;11.00;85.70
11423;DHT22;5768;51.476;7.210;2022-12-24T06:01:21;11.00;87.70
11423;DHT22;5768;51.476;7.210;2022-12-24T06:06:27;10.90;87.10
11423;DHT22;5768;51.476;7.210;2022-12-24T06:11:29;10.90;86.90
11423;DHT22;5768;51.476;7.210;2022-12-24T06:16:31;11.00;86.60
11423;DHT22;5768;51.476;7.210;2022-12-24T06:21:35;11.10;85.90
11423;DHT22;5768;51.476;7.210;2022-12-24T06:26:37;11.10;84.70
11423;DHT22;5768;51.476;7.210;2022-12-24T06:31:39;11.10;84.00
11423;DHT22;5768;51.476;7.210;2022-12-24T06:36:43;11.00;84.30
11423;DHT22;5768;51.476;7.210;2022-12-24T06:41:45;11.10;84.30
11423;DHT22;5768;51.476;7.210;2022-12-24T06:46:47;11.00;84.20
11423;DHT22;5768;51.476;7.210;2022-12-24T06:51:50;11.10;83.50
11423;DHT22;5768;51.476;7.210;2022-12-24T06:56:53;11.10;83.60
11423;DHT22;5768;51.476;7.210;2022-12-24T07:01:55;11.00;83.30
11423;DHT22;5768;51.476;7.210;2022-12-24T07:06:59;11.00;82.10
11423;DHT22;5768;51.476;7.210;2022-12-24T07:12:01;11.00;82.00
11423;DHT22;5768;51.476;7.210;2022-12-24T07:17:03;11.10;82.20
11423;DHT22;5768;51.476;7.210;2022-12-24T07:22:07;11.00;82.20
11423;DHT22;5768;51.476;7.210;2022-12-24T07:27:09;11.00;81.60
11423;DHT22;5768;51.476;7.210;2022-12-24T07:32:11;11.00;81.90
11423;DHT22;5768;51.476;7.210;2022-12-24T07:37:14;11.10;81.80
11423;DHT22;5768;51.476;7.210;2022-12-24T07:42:16;11.10;34.00
11423;DHT22;5768;51.476;7.210;2022-12-24T07:47:18;11.00;34.40
11423;DHT22;5768;51.476;7.210;2022-12-24T07:52:22;10.90;81.30
11423;DHT22;5768;51.476;7.210;2022-12-24T07:57:24;10.90;36.40
11423;DHT22;5768;51.476;7.210;2022-12-24T08:02:29;10.90;36.20
11423;DHT22;5768;51.476;7.210;2022-12-24T08:07:33;11.00;33.60
11423;DHT22;5768;51.476;7.210;2022-12-24T08:12:35;11.10;32.30
11423;DHT22;5768;51.476;7.210;2022-12-24T08:17:37;11.10;30.60
11423;DHT22;5768;51.476;7.210;2022-12-24T08:22:40;11.20;30.00
11423;DHT22;5768;51.476;7.210;2022-12-24T08:27:43;10.90;35.60
11423;DHT22;5768;51.476;7.210;2022-12-24T08:32:45;11.00;37.90
11423;DHT22;5768;51.476;7.210;2022-12-24T08:37:48;10.90;36.80
11423;DHT22;5768;51.476;7.210;2022-12-24T08:42:50;11.00;33.90
11423;DHT22;5768;51.476;7.210;2022-12-24T08:47:53;10.90;33.40
11423;DHT22;5768;51.476;7.210;2022-12-24T08:52:56;11.10;32.10
11423;DHT22;5768;51.476;7.210;2022-12-24T08:57:59;11.00;29.60
11423;DHT22;5768;51.476;7.210;2022-12-24T09:03:01;11.10;29.20
11423;DHT22;5768;51.476;7.210;2022-12-24T09:08:05;11.20;29.30
11423;DHT22;5768;51.476;7.210;2022-12-24T09:13:07;11.30;28.70
11423;DHT22;5768;51.476;7.210;2022-12-24T09:18:09;11.30;28.50
11423;DHT22;5768;51.476;7.210;2022-12-24T09:23:12;11.40;28.10
11423;DHT22;5768;51.476;7.210;2022-12-24T09:28:15;11.60;27.70
11423;DHT22;5768;51.476;7.210;2022-12-24T09:33:17;11.50;27.70
11423;DHT22;5768;51.476;7.210;2022-12-24T09:38:22;11.80;27.30
11423;DHT22;5768;51.476;7.210;2022-12-24T09:43:26;11.80;26.40
11423;DHT22;5768;51.476;7.210;2022-12-24T09:48:33;11.90;26.60
11423;DHT22;5768;51.476;7.210;2022-12-24T09:53:44;11.80;26.30
11423;DHT22;5768;51.476;7.210;2022-12-24T09:58:55;11.80;26.30
11423;DHT22;5768;51.476;7.210;2022-12-24T10:04:03;11.90;26.20
11423;DHT22;5768;51.476;7.210;2022-12-24T10:09:15;11.80;26.40
11423;DHT22;5768;51.476;7.210;2022-12-24T10:14:42;11.90;26.10
11423;DHT22;5768;51.476;7.210;2022-12-24T10:20:04;11.90;26.00
11423;DHT22;5768;51.476;7.210;2022-12-24T10:25:27;11.80;26.20
11423;DHT22;5768;51.476;7.210;2022-12-24T10:30:33;12.00;26.10
11423;DHT22;5768;51.476;7.210;2022-12-24T10:35:41;12.50;24.60
11423;DHT22;5768;51.476;7.210;2022-12-24T10:40:49;12.50;24.10
11423;DHT22;5768;51.476;7.210;2022-12-24T10:45:56;12.50;24.20
11423;DHT22;5768;51.476;7.210;2022-12-24T10:51:04;12.30;24.70
11423;DHT22;5768;51.476;7.210;2022-12-24T10:56:11;12.20;24.80
11423;DHT22;5768;51.476;7.210;2022-12-24T11:01:14;12.20;24.90
11423;DHT22;5768;51.476;7.210;2022-12-24T11:06:16;12.30;24.90
11423;DHT22;5768;51.476;7.210;2022-12-24T11:11:22;12.30;24.50
11423;DHT22;5768;51.476;7.210;2022-12-24T11:16:27;12.10;24.80
11423;DHT22;5768;51.476;7.210;2022-12-24T11:21:32;12.10;25.60
11423;DHT22;5768;51.476;7.210;2022-12-24T11:26:39;12.40;24.90
11423;DHT22;5768;51.476;7.210;2022-12-24T11:31:44;12.40;24.80
11423;DHT22;5768;51.476;7.210;2022-12-24T11:36:47;12.40;24.50
11423;DHT22;5768;51.476;7.210;2022-12-24T11:41:52;12.30;24.50
11423;DHT22;5768;51.476;7.210;2022-12-24T11:46:55;12.20;25.00
11423;DHT22;5768;51.476;7.210;2022-12-24T11:52:07;12.30;24.00
11423;DHT22;5768;51.476;7.210;2022-12-24T11:57:24;12.30;24.10
11423;DHT22;5768;51.476;7.210;2022-12-24T12:02:37;12.30;23.90
11423;DHT22;5768;51.476;7.210;2022-12-24T12:07:46;12.50;23.70
11423;DHT22;5768;51.476;7.210;2022-12-24T12:12:57;12.60;23.40
11423;DHT22;5768;51.476;7.210;2022-12-24T12:18:06;12.70;23.20
11423;DHT22;5768;51.476;7.210;2022-12-24T12:23:16;12.50;22.90
11423;DHT22;5768;51.476;7.210;2022-12-24T12:28:28;12.50;23.00
11423;DHT22;5768;51.476;7.210;2022-12-24T12:33:37;12.60;22.50
11423;DHT22;5768;51.476;7.210;2022-12-24T12:38:42;12.40;23.00
11423;DHT22;5768;51.476;7.210;2022-12-24T12:44:08;12.50;22.80
11423;DHT22;5768;51.476;7.210;2022-12-24T12:49:29;12.60;22.10
11423;DHT22;5768;51.476;7.210;2022-12-24T12:54:52;12.50;22.10
11423;DHT22;5768;51.476;7.210;2022-12-24T13:00:10;12.70;21.80
11423;DHT22;5768;51.476;7.210;2022-12-24T13:05:33;12.90;21.40
11423;DHT22;5768;51.476;7.210;2022-12-24T13:11:03;13.00;20.60
11423;DHT22;5768;51.476;7.210;2022-12-24T13:16:31;13.40;20.20
11423;DHT22;5768;51.476;7.210;2022-12-24T13:21:55;13.30;20.00
11423;DHT22;5768;51.476;7.210;2022-12-24T13:27:03;13.20;19.70
11423;DHT22;5768;51.476;7.210;2022-12-24T13:32:48;13.40;19.90
11423;DHT22;5768;51.476;7.210;2022-12-24T13:37:51;13.20;19.60
11423;DHT22;5768;51.476;7.210;2022-12-24T13:43:07;12.70;20.00
11423;DHT22;5768;51.476;7.210;2022-12-24T13:48:30;12.60;20.50
11423;DHT22;5768;51.476;7.210;2022-12-24T13:53:40;12.80;20.30
11423;DHT22;5768;51.476;7.210;2022-12-24T13:58:46;12.70;20.20
11423;DHT22;5768;51.476;7.210;2022-12-24T14:03:54;13.00;20.00
11423;DHT22;5768;51.476;7.210;2022-12-24T14:09:08;13.10;19.80
11423;DHT22;5768;51.476;7.210;2022-12-24T14:14:26;13.10;19.80
11423;DHT22;5768;51.476;7.210;2022-12-24T14:19:39;13.10;19.60
11423;DHT22;5768;51.476;7.210;2022-12-24T14:24:48;13.30;19.20
11423;DHT22;5768;51.476;7.210;2022-12-24T14:30:00;13.50;19.00
11423;DHT22;5768;51.476;7.210;2022-12-24T14:41:46;13.20;18.60
11423;DHT22;5768;51.476;7.210;2022-12-24T14:46:56;12.90;18.90
11423;DHT22;5768;51.476;7.210;2022-12-24T14:52:06;12.70;19.20
11423;DHT22;5768;51.476;7.210;2022-12-24T14:57:20;12.70;19.40
11423;DHT22;5768;51.476;7.210;2022-12-24T15:02:29;12.60;19.30
11423;DHT22;5768;51.476;7.210;2022-12-24T15:07:42;12.40;19.60
11423;DHT22;5768;51.476;7.210;2022-12-24T15:12:48;12.10;20.00
11423;DHT22;5768;51.476;7.210;2022-12-24T15:17:51;11.90;20.40
11423;DHT22;5768;51.476;7.210;2022-12-24T15:22:57;11.70;20.80
11423;DHT22;5768;51.476;7.210;2022-12-24T15:28:01;11.50;21.40
11423;DHT22;5768;51.476;7.210;2022-12-24T15:33:03;11.30;21.70
11423;DHT22;5768;51.476;7.210;2022-12-24T15:38:26;11.30;22.00
11423;DHT22;5768;51.476;7.210;2022-12-24T15:43:39;11.30;22.00
11423;DHT22;5768;51.476;7.210;2022-12-24T15:48:44;11.20;22.00
11423;DHT22;5768;51.476;7.210;2022-12-24T15:53:47;11.10;22.40
11423;DHT22;5768;51.476;7.210;2022-12-24T15:58:50;11.20;22.20
11423;DHT22;5768;51.476;7.210;2022-12-24T16:04:12;11.20;22.20
11423;DHT22;5768;51.476;7.210;2022-12-24T16:09:46;11.30;22.20
11423;DHT22;5768;51.476;7.210;2022-12-24T16:14:51;11.20;22.30
11423;DHT22;5768;51.476;7.210;2022-12-24T16:20:01;11.00;22.50
11423;DHT22;5768;51.476;7.210;2022-12-24T16:25:20;10.90;23.00
11423;DHT22;5768;51.476;7.210;2022-12-24T16:30:26;10.90;23.30
11423;DHT22;5768;51.476;7.210;2022-12-24T16:35:30;10.80;23.70
11423;DHT22;5768;51.476;7.210;2022-12-24T16:40:36;10.70;23.80
11423;DHT22;5768;51.476;7.210;2022-12-24T16:45:39;10.70;24.00
11423;DHT22;5768;51.476;7.210;2022-12-24T16:50:41;10.70;24.10
11423;DHT22;5768;51.476;7.210;2022-12-24T16:55:44;10.70;24.00
11423;DHT22;5768;51.476;7.210;2022-12-24T17:00:48;10.60;24.30
11423;DHT22;5768;51.476;7.210;2022-12-24T17:05:50;10.50;24.50
11423;DHT22;5768;51.476;7.210;2022-12-24T17:10:52;10.50;24.50
11423;DHT22;5768;51.476;7.210;2022-12-24T17:15:56;10.50;24.80
11423;DHT22;5768;51.476;7.210;2022-12-24T17:20:59;10.40;24.80
11423;DHT22;5768;51.476;7.210;2022-12-24T17:26:03;10.30;25.10
11423;DHT22;5768;51.476;7.210;2022-12-24T17:31:07;10.30;25.20
11423;DHT22;5768;51.476;7.210;2022-12-24T17:36:10;10.30;25.60
11423;DHT22;5768;51.476;7.210;2022-12-24T17:41:14;10.30;25.70
11423;DHT22;5768;51.476;7.210;2022-12-24T17:46:20;10.30;26.00
11423;DHT22;5768;51.476;7.210;2022-12-24T17:51:23;10.40;26.00
11423;DHT22;5768;51.476;7.210;2022-12-24T17:56:26;10.40;26.10
11423;DHT22;5768;51.476;7.210;2022-12-24T18:01:30;10.50;26.00
11423;DHT22;5768;51.476;7.210;2022-12-24T18:06:32;10.40;26.20
11423;DHT22;5768;51.476;7.210;2022-12-24T18:11:36;10.30;26.70
11423;DHT22;5768;51.476;7.210;2022-12-24T18:16:40;10.30;26.80
11423;DHT22;5768;51.476;7.210;2022-12-24T18:21:43;10.30;26.90
11423;DHT22;5768;51.476;7.210;2022-12-24T18:26:45;10.20;27.30
11423;DHT22;5768;51.476;7.210;2022-12-24T18:31:49;10.20;27.40
11423;DHT22;5768;51.476;7.210;2022-12-24T18:36:51;10.20;28.00
11423;DHT22;5768;51.476;7.210;2022-12-24T18:41:53;10.00;28.80
11423;DHT22;5768;51.476;7.210;2022-12-24T18:46:57;10.00;29.20
11423;DHT22;5768;51.476;7.210;2022-12-24T18:52:01;10.00;28.90
11423;DHT22;5768;51.476;7.210;2022-12-24T18:57:04;10.10;28.80
11423;DHT22;5768;51.476;7.210;2022-12-24T19:02:11;10.10;28.70
11423;DHT22;5768;51.476;7.210;2022-12-24T19:07:22;10.10;28.20
11423;DHT22;5768;51.476;7.210;2022-12-24T19:12:24;10.20;28.20
11423;DHT22;5768;51.476;7.210;2022-12-24T19:17:28;10.30;27.90
11423;DHT22;5768;51.476;7.210;2022-12-24T19:22:29;10.30;28.10
11423;DHT22;5768;51.476;7.210;2022-12-24T19:27:32;10.20;28.40
11423;DHT22;5768;51.476;7.210;2022-12-24T19:32:35;10.30;28.80
11423;DHT22;5768;51.476;7.210;2022-12-24T19:37:38;10.30;28.60
11423;DHT22;5768;51.476;7.210;2022-12-24T19:42:40;10.20;29.00
11423;DHT22;5768;51.476;7.210;2022-12-24T19:47:45;10.30;28.90
11423;DHT22;5768;51.476;7.210;2022-12-24T19:52:47;10.40;28.80
11423;DHT22;5768;51.476;7.210;2022-12-24T19:57:50;10.40;29.00
11423;DHT22;5768;51.476;7.210;2022-12-24T20:02:54;10.50;28.70
11423;DHT22;5768;51.476;7.210;2022-12-24T20:07:56;10.50;28.80
11423;DHT22;5768;51.476;7.210;2022-12-24T20:12:58;10.60;28.60
11423;DHT22;5768;51.476;7.210;2022-12-24T20:18:02;10.60;28.70
11423;DHT22;5768;51.476;7.210;2022-12-24T20:23:05;10.60;28.60
11423;DHT22;5768;51.476;7.210;2022-12-24T20:28:07;10.60;29.00
11423;DHT22;5768;51.476;7.210;2022-12-24T20:33:10;10.70;29.10
11423;DHT22;5768;51.476;7.210;2022-12-24T20:38:13;10.60;29.40
11423;DHT22;5768;51.476;7.210;2022-12-24T20:43:15;10.70;29.40
11423;DHT22;5768;51.476;7.210;2022-12-24T20:48:18;10.80;29.30
11423;DHT22;5768;51.476;7.210;2022-12-24T20:53:20;10.80;28.70
11423;DHT22;5768;51.476;7.210;2022-12-24T20:58:23;10.70;28.60
11423;DHT22;5768;51.476;7.210;2022-12-24T21:03:26;10.70;29.10
11423;DHT22;5768;51.476;7.210;2022-12-24T21:08:28;10.70;29.40
11423;DHT22;5768;51.476;7.210;2022-12-24T21:13:30;10.70;29.10
11423;DHT22;5768;51.476;7.210;2022-12-24T21:18:34;10.70;28.80
11423;DHT22;5768;51.476;7.210;2022-12-24T21:23:36;10.70;28.70
11423;DHT22;5768;51.476;7.210;2022-12-24T21:28:38;10.70;28.90
11423;DHT22;5768;51.476;7.210;2022-12-24T21:33:42;10.70;28.90
11423;DHT22;5768;51.476;7.210;2022-12-24T21:38:43;10.70;29.00
11423;DHT22;5768;51.476;7.210;2022-12-24T21:43:45;10.70;29.00
11423;DHT22;5768;51.476;7.210;2022-12-24T21:48:50;10.70;28.90
11423;DHT22;5768;51.476;7.210;2022-12-24T21:54:11;10.70;28.60
11423;DHT22;5768;51.476;7.210;2022-12-24T21:59:26;10.70;28.60
11423;DHT22;5768;51.476;7.210;2022-12-24T22:04:31;10.80;28.20
11423;DHT22;5768;51.476;7.210;2022-12-24T22:09:34;10.80;28.20
11423;DHT22;5768;51.476;7.210;2022-12-24T22:14:55;10.80;28.00
11423;DHT22;5768;51.476;7.210;2022-12-24T22:19:58;10.70;28.10
11423;DHT22;5768;51.476;7.210;2022-12-24T22:25:01;10.70;28.10
11423;DHT22;5768;51.476;7.210;2022-12-24T22:30:03;10.90;28.60
11423;DHT22;5768;51.476;7.210;2022-12-24T22:35:08;10.90;27.30
11423;DHT22;5768;51.476;7.210;2022-12-24T22:40:11;10.80;27.20
11423;DHT22;5768;51.476;7.210;2022-12-24T22:45:13;10.70;27.00
11423;DHT22;5768;51.476;7.210;2022-12-24T22:50:17;10.60;27.20
11423;DHT22;5768;51.476;7.210;2022-12-24T22:55:19;10.60;27.40
11423;DHT22;5768;51.476;7.210;2022-12-24T23:00:37;10.50;27.70
11423;DHT22;5768;51.476;7.210;2022-12-24T23:05:42;10.40;27.70
11423;DHT22;5768;51.476;7.210;2022-12-24T23:10:45;10.30;28.00
11423;DHT22;5768;51.476;7.210;2022-12-24T23:15:47;10.20;28.10
11423;DHT22;5768;51.476;7.210;2022-12-24T23:20:50;10.20;28.40
11423;DHT22;5768;51.476;7.210;2022-12-24T23:26:00;10.20;28.30
11423;DHT22;5768;51.476;7.210;2022-12-24T23:31:04;10.00;28.50
11423;DHT22;5768;51.476;7.210;2022-12-24T23:36:08;10.00;28.60
11423;DHT22;5768;51.476;7.210;2022-12-24T23:41:10;10.10;28.70
11423;DHT22;5768;51.476;7.210;2022-12-24T23:46:13;10.20;28.20
11423;DHT22;5768;51.476;7.210;2022-12-24T23:51:19;10.30;27.90
11423;DHT22;5768;51.476;7.210;2022-12-24T23:56:24;10.40;27.40
